sensor_id;sensor_type;location;lat;lon;timestamp;pressure;altitude;pressure_sealevel;temperature;humidity
55540;BME280;41384;51.418;7.286;2023-06-19T00:01:41;99218.19;;;23.17;54.04
55540;BME280;41384;51.418;7.286;2023-06-19T00:04:06;99215.50;;;23.17;54.00
55540;BME280;41384;51.418;7.286;2023-06-19T00:06:31;99216.22;;;23.09;54.59
55540;BME280;41384;51.418;7.286;2023-06-19T00:08:57;99203.56;;;23.10;54.74
55540;BME280;41384;51.418;7.286;2023-06-19T00:11:22;99213.47;;;23.00;55.25
55540;BME280;41384;51.418;7.286;2023-06-19T00:13:47;99211.13;;;23.08;55.11
55540;BME280;41384;51.418;7.286;2023-06-19T00:16:12;99213.56;;;22.95;55.50
55540;BME280;41384;51.418;7.286;2023-06-19T00:18:38;99205.50;;;22.95;55.88
55540;BME280;41384;51.418;7.286;2023-06-19T00:21:07;99200.31;;;22.99;55.69
55540;BME280;41384;51.418;7.286;2023-06-19T00:23:32;99208.69;;;22.97;55.75
55540;BME280;41384;51.418;7.286;2023-06-19T00:25:58;99213.34;;;23.06;55.59
55540;BME280;41384;51.418;7.286;2023-06-19T00:28:26;99221.03;;;22.98;56.09
55540;BME280;41384;51.418;7.286;2023-06-19T00:30:51;99220.66;;;22.91;56.27
55540;BME280;41384;51.418;7.286;2023-06-19T00:33:16;99227.31;;;22.94;56.26
55540;BME280;41384;51.418;7.286;2023-06-19T00:35:42;99223.81;;;22.70;57.17
55540;BME280;41384;51.418;7.286;2023-06-19T00:38:07;99227.38;;;22.80;57.05
55540;BME280;41384;51.418;7.286;2023-06-19T00:42:58;99220.19;;;22.75;57.52
55540;BME280;41384;51.418;7.286;2023-06-19T00:45:24;99231.56;;;22.72;57.27
55540;BME280;41384;51.418;7.286;2023-06-19T00:47:52;99229.09;;;22.62;57.98
55540;BME280;41384;51.418;7.286;2023-06-19T00:50:18;99223.09;;;22.79;57.32
55540;BME280;41384;51.418;7.286;2023-06-19T00:52:43;99223.31;;;22.68;57.77
55540;BME280;41384;51.418;7.286;2023-06-19T00:55:09;99223.69;;;22.76;57.19
55540;BME280;41384;51.418;7.286;2023-06-19T00:57:35;99229.75;;;22.81;57.45
55540;BME280;41384;51.418;7.286;2023-06-19T01:00:01;99225.66;;;22.84;56.97
55540;BME280;41384;51.418;7.286;2023-06-19T01:02:29;99218.09;;;22.86;56.86
55540;BME280;41384;51.418;7.286;2023-06-19T01:04:56;99226.22;;;22.95;56.71
55540;BME280;41384;51.418;7.286;2023-06-19T01:07:30;99224.13;;;22.92;57.35
55540;BME280;41384;51.418;7.286;2023-06-19T01:10:04;99217.59;;;22.84;56.95
55540;BME280;41384;51.418;7.286;2023-06-19T01:12:36;99225.78;;;22.79;57.08
55540;BME280;41384;51.418;7.286;2023-06-19T01:15:03;99211.84;;;22.63;57.38
55540;BME280;41384;51.418;7.286;2023-06-19T01:17:30;99223.53;;;22.58;57.55
55540;BME280;41384;51.418;7.286;2023-06-19T01:19:57;99218.22;;;22.53;57.16
55540;BME280;41384;51.418;7.286;2023-06-19T01:24:51;99232.09;;;22.60;56.89
55540;BME280;41384;51.418;7.286;2023-06-19T01:29:42;99217.34;;;22.71;56.48
55540;BME280;41384;51.418;7.286;2023-06-19T01:34:36;99214.22;;;22.78;56.14
55540;BME280;41384;51.418;7.286;2023-06-19T01:37:03;99217.00;;;22.73;56.45
55540;BME280;41384;51.418;7.286;2023-06-19T01:39:31;99212.56;;;22.68;56.21
55540;BME280;41384;51.418;7.286;2023-06-19T01:41:58;99210.53;;;22.74;55.58
55540;BME280;41384;51.418;7.286;2023-06-19T01:44:24;99209.88;;;22.68;55.58
55540;BME280;41384;51.418;7.286;2023-06-19T01:46:50;99206.47;;;22.77;55.05
55540;BME280;41384;51.418;7.286;2023-06-19T01:49:16;99198.88;;;22.79;54.79
55540;BME280;41384;51.418;7.286;2023-06-19T01:51:41;99202.78;;;22.72;54.67
55540;BME280;41384;51.418;7.286;2023-06-19T01:54:07;99194.09;;;22.76;54.76
55540;BME280;41384;51.418;7.286;2023-06-19T01:56:32;99198.19;;;22.73;53.72
55540;BME280;41384;51.418;7.286;2023-06-19T01:58:58;99202.28;;;22.70;53.90
55540;BME280;41384;51.418;7.286;2023-06-19T02:01:23;99203.88;;;22.71;53.70
55540;BME280;41384;51.418;7.286;2023-06-19T02:03:48;99199.50;;;22.76;53.49
55540;BME280;41384;51.418;7.286;2023-06-19T02:06:14;99200.28;;;22.76;53.01
55540;BME280;41384;51.418;7.286;2023-06-19T02:08:39;99201.09;;;22.77;53.04
55540;BME280;41384;51.418;7.286;2023-06-19T02:11:04;99205.84;;;22.80;53.33
55540;BME280;41384;51.418;7.286;2023-06-19T02:13:29;99204.88;;;22.76;52.98
55540;BME280;41384;51.418;7.286;2023-06-19T02:15:55;99205.25;;;22.83;52.57
55540;BME280;41384;51.418;7.286;2023-06-19T02:18:21;99213.50;;;22.86;52.95
55540;BME280;41384;51.418;7.286;2023-06-19T02:20:47;99217.00;;;22.87;53.08
55540;BME280;41384;51.418;7.286;2023-06-19T02:23:12;99216.00;;;22.83;52.70
55540;BME280;41384;51.418;7.286;2023-06-19T02:25:37;99225.19;;;22.82;52.94
55540;BME280;41384;51.418;7.286;2023-06-19T02:28:03;99225.19;;;22.82;53.12
55540;BME280;41384;51.418;7.286;2023-06-19T02:30:28;99219.09;;;22.76;53.30
55540;BME280;41384;51.418;7.286;2023-06-19T02:32:54;99223.09;;;22.79;53.37
55540;BME280;41384;51.418;7.286;2023-06-19T02:35:19;99231.66;;;22.81;53.41
55540;BME280;41384;51.418;7.286;2023-06-19T02:37:44;99234.56;;;22.70;53.55
55540;BME280;41384;51.418;7.286;2023-06-19T02:42:36;99237.38;;;22.65;54.28
55540;BME280;41384;51.418;7.286;2023-06-19T02:45:02;99242.75;;;22.65;54.13
55540;BME280;41384;51.418;7.286;2023-06-19T02:47:30;99250.31;;;22.63;53.94
55540;BME280;41384;51.418;7.286;2023-06-19T02:50:00;99257.28;;;22.64;54.62
55540;BME280;41384;51.418;7.286;2023-06-19T02:52:26;99263.16;;;22.66;54.20
55540;BME280;41384;51.418;7.286;2023-06-19T02:54:52;99263.16;;;22.66;54.17
55540;BME280;41384;51.418;7.286;2023-06-19T02:57:17;99274.09;;;22.70;54.37
55540;BME280;41384;51.418;7.286;2023-06-19T02:59:42;99273.72;;;22.63;54.30
55540;BME280;41384;51.418;7.286;2023-06-19T03:02:08;99279.31;;;22.66;54.40
55540;BME280;41384;51.418;7.286;2023-06-19T03:04:33;99287.38;;;22.66;54.14
55540;BME280;41384;51.418;7.286;2023-06-19T03:06:58;99287.97;;;22.63;54.38
55540;BME280;41384;51.418;7.286;2023-06-19T03:09:31;99284.69;;;22.66;54.13
55540;BME280;41384;51.418;7.286;2023-06-19T03:11:56;99289.56;;;22.64;54.21
55540;BME280;41384;51.418;7.286;2023-06-19T03:14:22;99297.22;;;22.71;54.32
55540;BME280;41384;51.418;7.286;2023-06-19T03:16:47;99295.63;;;22.70;54.31
55540;BME280;41384;51.418;7.286;2023-06-19T03:19:12;99302.59;;;22.71;55.00
55540;BME280;41384;51.418;7.286;2023-06-19T03:21:37;99305.78;;;22.73;55.25
55540;BME280;41384;51.418;7.286;2023-06-19T03:24:03;99313.06;;;22.72;55.44
55540;BME280;41384;51.418;7.286;2023-06-19T03:26:29;99318.13;;;22.74;55.68
55540;BME280;41384;51.418;7.286;2023-06-19T03:28:54;99321.53;;;22.66;56.70
55540;BME280;41384;51.418;7.286;2023-06-19T03:31:20;99319.84;;;22.70;56.70
55540;BME280;41384;51.418;7.286;2023-06-19T03:33:45;99327.91;;;22.70;57.14
55540;BME280;41384;51.418;7.286;2023-06-19T03:36:10;99326.41;;;22.64;57.58
55540;BME280;41384;51.418;7.286;2023-06-19T03:38:35;99323.81;;;22.58;58.78
55540;BME280;41384;51.418;7.286;2023-06-19T03:41:01;99334.97;;;22.52;59.44
55540;BME280;41384;51.418;7.286;2023-06-19T03:43:26;99333.97;;;22.48;59.69
55540;BME280;41384;51.418;7.286;2023-06-19T03:45:51;99338.31;;;22.43;60.53
55540;BME280;41384;51.418;7.286;2023-06-19T03:48:17;99335.72;;;22.38;61.09
55540;BME280;41384;51.418;7.286;2023-06-19T03:50:43;99334.22;;;22.32;61.45
55540;BME280;41384;51.418;7.286;2023-06-19T03:53:08;99338.09;;;22.26;62.08
55540;BME280;41384;51.418;7.286;2023-06-19T03:55:34;99331.03;;;22.30;62.02
55540;BME280;41384;51.418;7.286;2023-06-19T03:57:59;99340.28;;;22.24;62.29
55540;BME280;41384;51.418;7.286;2023-06-19T04:00:24;99350.84;;;22.20;63.19
55540;BME280;41384;51.418;7.286;2023-06-19T04:02:50;99360.09;;;22.14;63.59
55540;BME280;41384;51.418;7.286;2023-06-19T04:05:15;99355.41;;;22.20;63.83
55540;BME280;41384;51.418;7.286;2023-06-19T04:07:41;99352.53;;;22.16;63.92
55540;BME280;41384;51.418;7.286;2023-06-19T04:10:07;99363.38;;;22.25;64.00
55540;BME280;41384;51.418;7.286;2023-06-19T04:12:32;99358.69;;;22.16;64.98
55540;BME280;41384;51.418;7.286;2023-06-19T04:14:57;99361.63;;;22.01;65.72
55540;BME280;41384;51.418;7.286;2023-06-19T04:17:23;99370.88;;;21.95;66.23
55540;BME280;41384;51.418;7.286;2023-06-19T04:19:48;99373.25;;;21.96;66.65
55540;BME280;41384;51.418;7.286;2023-06-19T04:22:13;99384.13;;;22.05;66.33
55540;BME280;41384;51.418;7.286;2023-06-19T04:24:38;99378.75;;;22.05;66.47
55540;BME280;41384;51.418;7.286;2023-06-19T04:27:04;99386.69;;;21.96;67.08
55540;BME280;41384;51.418;7.286;2023-06-19T04:29:29;99391.34;;;21.91;67.50
55540;BME280;41384;51.418;7.286;2023-06-19T04:32:00;99393.72;;;21.92;67.81
55540;BME280;41384;51.418;7.286;2023-06-19T04:34:28;99392.94;;;21.92;67.73
55540;BME280;41384;51.418;7.286;2023-06-19T04:36:53;99400.41;;;21.95;67.82
55540;BME280;41384;51.418;7.286;2023-06-19T04:39:18;99398.16;;;22.02;67.55
55540;BME280;41384;51.418;7.286;2023-06-19T04:41:44;99410.84;;;21.96;68.28
55540;BME280;41384;51.418;7.286;2023-06-19T04:44:12;99419.34;;;22.04;68.18
55540;BME280;41384;51.418;7.286;2023-06-19T04:46:38;99409.84;;;21.92;68.53
55540;BME280;41384;51.418;7.286;2023-06-19T04:49:04;99415.06;;;22.02;68.42
55540;BME280;41384;51.418;7.286;2023-06-19T04:51:33;99416.53;;;21.95;68.78
55540;BME280;41384;51.418;7.286;2023-06-19T04:53:59;99422.78;;;21.90;69.26
55540;BME280;41384;51.418;7.286;2023-06-19T04:56:24;99418.47;;;22.08;68.52
55540;BME280;41384;51.418;7.286;2023-06-19T04:58:49;99426.25;;;22.10;68.68
55540;BME280;41384;51.418;7.286;2023-06-19T05:01:16;99425.31;;;22.00;68.92
55540;BME280;41384;51.418;7.286;2023-06-19T05:03:44;99420.16;;;22.04;69.49
55540;BME280;41384;51.418;7.286;2023-06-19T05:06:11;99428.22;;;22.04;69.74
55540;BME280;41384;51.418;7.286;2023-06-19T05:08:36;99434.59;;;22.08;69.51
55540;BME280;41384;51.418;7.286;2023-06-19T05:11:01;99437.44;;;21.98;70.22
55540;BME280;41384;51.418;7.286;2023-06-19T05:13:27;99448.69;;;21.81;71.28
55540;BME280;41384;51.418;7.286;2023-06-19T05:15:52;99446.09;;;21.76;71.77
55540;BME280;41384;51.418;7.286;2023-06-19T05:18:18;99453.28;;;21.80;71.46
55540;BME280;41384;51.418;7.286;2023-06-19T05:20:44;99446.44;;;21.88;71.51
55540;BME280;41384;51.418;7.286;2023-06-19T05:23:09;99441.66;;;21.85;71.73
55540;BME280;41384;51.418;7.286;2023-06-19T05:25:35;99441.88;;;21.89;71.68
55540;BME280;41384;51.418;7.286;2023-06-19T05:28:00;99442.47;;;21.85;71.83
55540;BME280;41384;51.418;7.286;2023-06-19T05:30:25;99441.88;;;21.89;72.17
55540;BME280;41384;51.418;7.286;2023-06-19T05:32:50;99452.06;;;21.92;71.72
55540;BME280;41384;51.418;7.286;2023-06-19T05:35:16;99448.50;;;21.77;71.77
55540;BME280;41384;51.418;7.286;2023-06-19T05:37:41;99452.78;;;21.78;72.01
55540;BME280;41384;51.418;7.286;2023-06-19T05:40:09;99453.06;;;21.77;72.65
55540;BME280;41384;51.418;7.286;2023-06-19T05:42:37;99456.47;;;21.82;72.59
55540;BME280;41384;51.418;7.286;2023-06-19T05:45:03;99450.75;;;21.70;73.14
55540;BME280;41384;51.418;7.286;2023-06-19T05:47:29;99458.28;;;21.68;73.08
55540;BME280;41384;51.418;7.286;2023-06-19T05:49:56;99459.16;;;21.82;72.84
55540;BME280;41384;51.418;7.286;2023-06-19T05:52:21;99462.44;;;21.79;72.75
55540;BME280;41384;51.418;7.286;2023-06-19T05:54:47;99460.47;;;21.85;72.69
55540;BME280;41384;51.418;7.286;2023-06-19T05:57:12;99461.03;;;22.01;72.04
55540;BME280;41384;51.418;7.286;2023-06-19T05:59:38;99474.09;;;22.08;71.92
55540;BME280;41384;51.418;7.286;2023-06-19T06:02:03;99471.38;;;21.94;72.17
55540;BME280;41384;51.418;7.286;2023-06-19T06:04:29;99485.31;;;21.96;72.39
55540;BME280;41384;51.418;7.286;2023-06-19T06:06:56;99485.53;;;21.80;72.75
55540;BME280;41384;51.418;7.286;2023-06-19T06:09:21;99490.00;;;21.85;73.22
55540;BME280;41384;51.418;7.286;2023-06-19T06:11:46;99490.69;;;21.96;72.73
55540;BME280;41384;51.418;7.286;2023-06-19T06:14:12;99488.84;;;21.91;72.85
55540;BME280;41384;51.418;7.286;2023-06-19T06:16:37;99493.16;;;22.11;71.88
55540;BME280;41384;51.418;7.286;2023-06-19T06:19:02;99497.06;;;22.00;72.14
55540;BME280;41384;51.418;7.286;2023-06-19T06:21:27;99504.38;;;21.94;72.14
55540;BME280;41384;51.418;7.286;2023-06-19T06:23:53;99502.72;;;21.98;72.39
55540;BME280;41384;51.418;7.286;2023-06-19T06:26:19;99498.94;;;21.80;73.42
55540;BME280;41384;51.418;7.286;2023-06-19T06:28:44;99503.66;;;22.08;72.47
55540;BME280;41384;51.418;7.286;2023-06-19T06:31:10;99503.16;;;22.25;71.46
55540;BME280;41384;51.418;7.286;2023-06-19T06:33:35;99508.25;;;22.26;71.56
55540;BME280;41384;51.418;7.286;2023-06-19T06:36:01;99509.13;;;22.22;71.72
55540;BME280;41384;51.418;7.286;2023-06-19T06:38:26;99508.41;;;22.16;72.02
55540;BME280;41384;51.418;7.286;2023-06-19T06:40:51;99505.13;;;22.19;71.89
55540;BME280;41384;51.418;7.286;2023-06-19T06:43:17;99506.81;;;22.15;72.12
55540;BME280;41384;51.418;7.286;2023-06-19T06:45:42;99507.09;;;22.13;71.88
55540;BME280;41384;51.418;7.286;2023-06-19T06:48:08;99504.75;;;22.26;71.59
55540;BME280;41384;51.418;7.286;2023-06-19T06:50:33;99504.19;;;22.10;72.26
55540;BME280;41384;51.418;7.286;2023-06-19T06:52:59;99505.25;;;22.09;71.71
55540;BME280;41384;51.418;7.286;2023-06-19T06:55:24;99503.63;;;22.13;72.11
55540;BME280;41384;51.418;7.286;2023-06-19T06:57:50;99507.31;;;22.17;71.62
55540;BME280;41384;51.418;7.286;2023-06-19T07:00:15;99510.50;;;22.19;71.85
55540;BME280;41384;51.418;7.286;2023-06-19T07:02:41;99511.88;;;22.36;71.57
55540;BME280;41384;51.418;7.286;2023-06-19T07:05:07;99512.75;;;22.31;71.82
55540;BME280;41384;51.418;7.286;2023-06-19T07:07:32;99525.00;;;22.37;71.46
55540;BME280;41384;51.418;7.286;2023-06-19T07:09:57;99517.09;;;22.27;71.71
55540;BME280;41384;51.418;7.286;2023-06-19T07:12:23;99520.38;;;22.24;71.62
55540;BME280;41384;51.418;7.286;2023-06-19T07:14:48;99519.09;;;22.21;72.12
55540;BME280;41384;51.418;7.286;2023-06-19T07:17:13;99525.69;;;22.29;72.22
55540;BME280;41384;51.418;7.286;2023-06-19T07:19:38;99535.75;;;22.37;72.32
55540;BME280;41384;51.418;7.286;2023-06-19T07:22:04;99531.06;;;22.48;72.10
55540;BME280;41384;51.418;7.286;2023-06-19T07:24:29;99529.88;;;22.35;72.73
55540;BME280;41384;51.418;7.286;2023-06-19T07:26:55;99540.56;;;22.40;72.48
55540;BME280;41384;51.418;7.286;2023-06-19T07:29:21;99544.84;;;22.41;72.66
55540;BME280;41384;51.418;7.286;2023-06-19T07:31:46;99547.84;;;22.40;72.22
55540;BME280;41384;51.418;7.286;2023-06-19T07:34:13;99545.72;;;22.37;72.10
55540;BME280;41384;51.418;7.286;2023-06-19T07:36:38;99550.22;;;22.41;71.19
55540;BME280;41384;51.418;7.286;2023-06-19T07:39:03;99553.22;;;22.21;72.09
55540;BME280;41384;51.418;7.286;2023-06-19T07:41:28;99551.47;;;22.30;71.25
55540;BME280;41384;51.418;7.286;2023-06-19T07:43:54;99558.00;;;22.24;71.43
55540;BME280;41384;51.418;7.286;2023-06-19T07:46:19;99557.00;;;22.20;71.30
55540;BME280;41384;51.418;7.286;2023-06-19T07:48:44;99554.16;;;22.30;71.13
55540;BME280;41384;51.418;7.286;2023-06-19T07:51:09;99550.97;;;22.28;71.59
55540;BME280;41384;51.418;7.286;2023-06-19T07:53:35;99555.81;;;22.26;71.58
55540;BME280;41384;51.418;7.286;2023-06-19T07:56:00;99550.38;;;22.31;71.61
55540;BME280;41384;51.418;7.286;2023-06-19T07:58:25;99552.94;;;22.22;71.49
55540;BME280;41384;51.418;7.286;2023-06-19T08:00:51;99549.22;;;22.37;71.48
55540;BME280;41384;51.418;7.286;2023-06-19T08:03:16;99552.47;;;22.34;71.06
55540;BME280;41384;51.418;7.286;2023-06-19T08:05:41;99554.50;;;22.42;71.11
55540;BME280;41384;51.418;7.286;2023-06-19T08:08:06;99557.94;;;22.29;71.12
55540;BME280;41384;51.418;7.286;2023-06-19T08:10:32;99557.88;;;22.15;71.76
55540;BME280;41384;51.418;7.286;2023-06-19T08:12:57;99563.59;;;22.08;72.32
55540;BME280;41384;51.418;7.286;2023-06-19T08:15:22;99562.28;;;22.25;71.39
55540;BME280;41384;51.418;7.286;2023-06-19T08:17:48;99567.41;;;22.26;71.49
55540;BME280;41384;51.418;7.286;2023-06-19T08:20:13;99569.63;;;22.38;71.58
55540;BME280;41384;51.418;7.286;2023-06-19T08:22:38;99572.03;;;22.21;72.53
55540;BME280;41384;51.418;7.286;2023-06-19T08:25:04;99562.94;;;22.16;72.32
55540;BME280;41384;51.418;7.286;2023-06-19T08:27:30;99554.53;;;22.23;72.20
55540;BME280;41384;51.418;7.286;2023-06-19T08:29:55;99561.13;;;22.31;71.92
55540;BME280;41384;51.418;7.286;2023-06-19T08:32:20;99559.19;;;22.37;72.14
55540;BME280;41384;51.418;7.286;2023-06-19T08:34:46;99567.41;;;22.26;72.31
55540;BME280;41384;51.418;7.286;2023-06-19T08:37:11;99564.53;;;22.18;72.96
55540;BME280;41384;51.418;7.286;2023-06-19T08:39:36;99566.66;;;22.21;73.02
55540;BME280;41384;51.418;7.286;2023-06-19T08:42:06;99572.38;;;22.33;72.80
55540;BME280;41384;51.418;7.286;2023-06-19T08:44:33;99569.91;;;22.18;73.62
55540;BME280;41384;51.418;7.286;2023-06-19T08:46:58;99568.19;;;22.27;73.83
55540;BME280;41384;51.418;7.286;2023-06-19T08:49:23;99578.84;;;22.32;74.06
55540;BME280;41384;51.418;7.286;2023-06-19T08:51:49;99578.00;;;22.37;74.24
55540;BME280;41384;51.418;7.286;2023-06-19T08:54:14;99584.38;;;22.22;75.15
55540;BME280;41384;51.418;7.286;2023-06-19T08:56:39;99583.28;;;22.23;75.26
55540;BME280;41384;51.418;7.286;2023-06-19T08:59:15;99586.56;;;22.20;74.69
55540;BME280;41384;51.418;7.286;2023-06-19T09:01:51;99587.50;;;22.29;72.59
55540;BME280;41384;51.418;7.286;2023-06-19T09:04:25;99588.31;;;22.29;72.06
55540;BME280;41384;51.418;7.286;2023-06-19T09:06:53;99578.50;;;22.39;71.60
55540;BME280;41384;51.418;7.286;2023-06-19T09:09:20;99575.31;;;22.37;71.34
55540;BME280;41384;51.418;7.286;2023-06-19T09:12:02;99583.44;;;22.51;70.43
55540;BME280;41384;51.418;7.286;2023-06-19T09:16:56;99582.00;;;22.78;70.44
55540;BME280;41384;51.418;7.286;2023-06-19T09:19:21;99587.66;;;22.76;70.58
55540;BME280;41384;51.418;7.286;2023-06-19T09:21:47;99594.00;;;22.66;70.75
55540;BME280;41384;51.418;7.286;2023-06-19T09:24:12;99596.03;;;22.74;70.37
55540;BME280;41384;51.418;7.286;2023-06-19T09:26:37;99601.50;;;23.02;70.23
55540;BME280;41384;51.418;7.286;2023-06-19T09:29:13;99591.66;;;23.12;69.18
55540;BME280;41384;51.418;7.286;2023-06-19T09:31:39;99600.72;;;23.16;68.43
55540;BME280;41384;51.418;7.286;2023-06-19T09:34:06;99595.91;;;23.32;68.47
55540;BME280;41384;51.418;7.286;2023-06-19T09:36:32;99603.34;;;23.21;67.59
55540;BME280;41384;51.418;7.286;2023-06-19T09:38:59;99599.78;;;23.26;68.14
55540;BME280;41384;51.418;7.286;2023-06-19T09:41:25;99598.44;;;23.09;67.23
55540;BME280;41384;51.418;7.286;2023-06-19T09:43:54;99604.75;;;23.18;67.15
55540;BME280;41384;51.418;7.286;2023-06-19T09:46:25;99603.00;;;23.28;66.14
55540;BME280;41384;51.418;7.286;2023-06-19T09:48:53;99599.00;;;23.39;66.14
55540;BME280;41384;51.418;7.286;2023-06-19T09:51:23;99602.41;;;23.45;65.01
55540;BME280;41384;51.418;7.286;2023-06-19T09:53:49;99601.91;;;23.57;64.46
55540;BME280;41384;51.418;7.286;2023-06-19T09:56:16;99602.41;;;23.45;63.10
55540;BME280;41384;51.418;7.286;2023-06-19T09:58:48;99601.94;;;23.71;64.08
55540;BME280;41384;51.418;7.286;2023-06-19T10:01:15;99593.63;;;23.95;62.81
55540;BME280;41384;51.418;7.286;2023-06-19T10:03:43;99594.50;;;24.18;61.91
55540;BME280;41384;51.418;7.286;2023-06-19T10:06:13;99603.41;;;24.19;60.09
55540;BME280;41384;51.418;7.286;2023-06-19T10:08:41;99598.47;;;24.35;59.95
55540;BME280;41384;51.418;7.286;2023-06-19T10:11:08;99603.53;;;24.51;59.75
55540;BME280;41384;51.418;7.286;2023-06-19T10:13:35;99607.09;;;24.60;58.78
55540;BME280;41384;51.418;7.286;2023-06-19T10:16:01;99602.97;;;24.62;57.37
55540;BME280;41384;51.418;7.286;2023-06-19T10:18:27;99605.16;;;24.60;58.04
55540;BME280;41384;51.418;7.286;2023-06-19T10:20:54;99596.84;;;24.71;58.07
55540;BME280;41384;51.418;7.286;2023-06-19T10:23:22;99614.06;;;24.61;57.48
55540;BME280;41384;51.418;7.286;2023-06-19T10:25:55;99612.53;;;24.46;57.61
55540;BME280;41384;51.418;7.286;2023-06-19T10:28:25;99616.16;;;24.41;56.91
55540;BME280;41384;51.418;7.286;2023-06-19T10:30:55;99603.31;;;24.47;56.65
55540;BME280;41384;51.418;7.286;2023-06-19T10:33:24;99614.16;;;24.33;57.13
55540;BME280;41384;51.418;7.286;2023-06-19T10:35:50;99610.06;;;24.22;57.13
55540;BME280;41384;51.418;7.286;2023-06-19T10:38:16;99609.53;;;24.47;57.50
55540;BME280;41384;51.418;7.286;2023-06-19T10:40:42;99604.75;;;24.44;56.69
55540;BME280;41384;51.418;7.286;2023-06-19T10:43:08;99611.19;;;24.57;57.23
55540;BME280;41384;51.418;7.286;2023-06-19T10:45:34;99609.66;;;24.79;56.82
55540;BME280;41384;51.418;7.286;2023-06-19T10:48:01;99608.59;;;24.52;57.64
55540;BME280;41384;51.418;7.286;2023-06-19T10:50:33;99608.16;;;24.36;57.78
55540;BME280;41384;51.418;7.286;2023-06-19T10:53:00;99596.44;;;24.41;57.17
55540;BME280;41384;51.418;7.286;2023-06-19T10:55:25;99590.41;;;24.58;57.34
55540;BME280;41384;51.418;7.286;2023-06-19T10:57:50;99595.06;;;24.80;56.30
55540;BME280;41384;51.418;7.286;2023-06-19T11:00:27;99600.16;;;24.68;55.56
55540;BME280;41384;51.418;7.286;2023-06-19T11:02:53;99596.53;;;24.72;55.28
55540;BME280;41384;51.418;7.286;2023-06-19T11:05:20;99588.25;;;24.69;55.56
55540;BME280;41384;51.418;7.286;2023-06-19T11:07:52;99596.41;;;24.55;55.45
55540;BME280;41384;51.418;7.286;2023-06-19T11:10:21;99598.41;;;24.49;55.02
55540;BME280;41384;51.418;7.286;2023-06-19T11:12:47;99601.44;;;24.70;55.14
55540;BME280;41384;51.418;7.286;2023-06-19T11:15:13;99595.66;;;24.77;54.22
55540;BME280;41384;51.418;7.286;2023-06-19T11:17:38;99588.25;;;24.69;55.27
55540;BME280;41384;51.418;7.286;2023-06-19T11:20:04;99592.25;;;24.71;54.22
55540;BME280;41384;51.418;7.286;2023-06-19T11:22:38;99587.13;;;24.84;53.74
55540;BME280;41384;51.418;7.286;2023-06-19T11:25:04;99586.72;;;24.99;54.93
55540;BME280;41384;51.418;7.286;2023-06-19T11:27:31;99584.38;;;25.06;53.90
55540;BME280;41384;51.418;7.286;2023-06-19T11:29:57;99593.09;;;25.26;53.80
55540;BME280;41384;51.418;7.286;2023-06-19T11:32:28;99586.16;;;25.43;52.03
55540;BME280;41384;51.418;7.286;2023-06-19T11:34:56;99579.34;;;25.45;51.14
55540;BME280;41384;51.418;7.286;2023-06-19T11:37:21;99582.50;;;25.39;51.69
55540;BME280;41384;51.418;7.286;2023-06-19T11:39:48;99568.44;;;25.59;51.20
55540;BME280;41384;51.418;7.286;2023-06-19T11:42:15;99572.63;;;25.74;51.21
55540;BME280;41384;51.418;7.286;2023-06-19T11:44:55;99571.19;;;25.77;51.47
55540;BME280;41384;51.418;7.286;2023-06-19T11:47:21;99572.84;;;26.04;50.28
55540;BME280;41384;51.418;7.286;2023-06-19T11:49:50;99580.25;;;25.81;50.81
55540;BME280;41384;51.418;7.286;2023-06-19T11:52:16;99575.50;;;25.69;50.41
55540;BME280;41384;51.418;7.286;2023-06-19T11:54:41;99579.97;;;25.83;50.47
55540;BME280;41384;51.418;7.286;2023-06-19T11:57:09;99585.09;;;26.11;48.16
55540;BME280;41384;51.418;7.286;2023-06-19T11:59:38;99583.06;;;26.25;47.20
55540;BME280;41384;51.418;7.286;2023-06-19T12:02:04;99580.06;;;26.27;46.70
55540;BME280;41384;51.418;7.286;2023-06-19T12:04:30;99579.09;;;26.31;46.65
55540;BME280;41384;51.418;7.286;2023-06-19T12:06:55;99587.84;;;26.37;45.21
55540;BME280;41384;51.418;7.286;2023-06-19T12:09:20;99592.47;;;26.36;45.05
55540;BME280;41384;51.418;7.286;2023-06-19T12:11:45;99582.59;;;26.41;45.64
55540;BME280;41384;51.418;7.286;2023-06-19T12:14:11;99585.47;;;26.53;45.17
55540;BME280;41384;51.418;7.286;2023-06-19T12:16:36;99588.19;;;26.53;45.60
55540;BME280;41384;51.418;7.286;2023-06-19T12:19:01;99598.03;;;26.49;46.23
55540;BME280;41384;51.418;7.286;2023-06-19T12:21:27;99585.78;;;26.34;44.70
55540;BME280;41384;51.418;7.286;2023-06-19T12:23:52;99585.28;;;26.41;46.36
55540;BME280;41384;51.418;7.286;2023-06-19T12:26:17;99581.19;;;26.52;46.20
55540;BME280;41384;51.418;7.286;2023-06-19T12:28:43;99578.94;;;26.54;45.70
55540;BME280;41384;51.418;7.286;2023-06-19T12:31:08;99577.50;;;26.65;43.98
55540;BME280;41384;51.418;7.286;2023-06-19T12:33:33;99588.97;;;26.54;44.72
55540;BME280;41384;51.418;7.286;2023-06-19T12:35:59;99591.38;;;26.55;44.95
55540;BME280;41384;51.418;7.286;2023-06-19T12:38:25;99588.31;;;26.57;44.42
55540;BME280;41384;51.418;7.286;2023-06-19T12:40:50;99585.94;;;26.37;44.46
55540;BME280;41384;51.418;7.286;2023-06-19T12:43:15;99584.19;;;26.42;44.40
55540;BME280;41384;51.418;7.286;2023-06-19T12:45:40;99574.78;;;26.57;44.88
55540;BME280;41384;51.418;7.286;2023-06-19T12:48:06;99571.78;;;26.49;45.84
55540;BME280;41384;51.418;7.286;2023-06-19T12:50:32;99582.75;;;26.62;45.04
55540;BME280;41384;51.418;7.286;2023-06-19T12:52:57;99582.44;;;26.63;44.46
55540;BME280;41384;51.418;7.286;2023-06-19T12:55:22;99576.06;;;26.50;44.12
55540;BME280;41384;51.418;7.286;2023-06-19T12:57:47;99585.78;;;26.51;44.46
55540;BME280;41384;51.418;7.286;2023-06-19T13:00:13;99582.78;;;26.53;44.89
55540;BME280;41384;51.418;7.286;2023-06-19T13:02:39;99584.94;;;26.77;44.64
55540;BME280;41384;51.418;7.286;2023-06-19T13:05:06;99586.41;;;26.84;44.78
55540;BME280;41384;51.418;7.286;2023-06-19T13:07:31;99581.78;;;26.84;43.94
55540;BME280;41384;51.418;7.286;2023-06-19T13:09:58;99581.97;;;26.61;45.01